createdAt,value
2022-08-22T00:00:13.553Z,4.25
2022-08-22T00:02:45.270Z,2.45
2022-08-22T00:02:52.600Z,2.75
2022-08-22T00:02:58.022Z,4.10
2022-08-22T00:03:03.566Z,2.55
2022-08-22T00:03:06.413Z,4.43
2022-08-22T00:03:10.287Z,5.13
2022-08-22T00:03:11.561Z,2.75
2022-08-22T00:03:17.551Z,5.38
2022-08-22T00:05:57.438Z,4.60
2022-08-22T00:08:32.701Z,4.32
2022-08-22T00:11:08.783Z,4.35
2022-08-22T00:13:46.184Z,3.70
2022-08-22T00:16:19.461Z,3.60
2022-08-22T00:18:52.700Z,4.20
2022-08-22T00:21:26.386Z,3.97
2022-08-22T00:24:07.168Z,4.07
2022-08-22T00:26:45.412Z,4.90
2022-08-22T00:29:16.652Z,4.40
2022-08-22T00:31:50.827Z,4.43
2022-08-22T00:34:30.973Z,3.97
2022-08-22T00:37:04.153Z,4.30
2022-08-22T00:39:37.418Z,4.20
2022-08-22T00:42:31.759Z,4.32
2022-08-22T00:45:34.525Z,4.40
2022-08-22T00:48:19.762Z,4.05
2022-08-22T00:51:11.097Z,3.90
2022-08-22T00:53:46.857Z,3.75
2022-08-22T00:56:45.998Z,4.20
2022-08-22T00:59:30.122Z,4.05
2022-08-22T01:02:11.108Z,4.00
2022-08-22T01:05:02.254Z,3.70
2022-08-22T01:07:45.126Z,4.03
2022-08-22T01:10:32.141Z,3.78
2022-08-22T01:13:16.090Z,3.90
2022-08-22T01:15:45.720Z,3.63
2022-08-22T01:18:33.964Z,4.05
2022-08-22T01:21:38.466Z,4.47
2022-08-22T01:25:04.749Z,4.20
2022-08-22T01:28:07.510Z,4.63
2022-08-22T01:30:52.357Z,3.55
2022-08-22T01:33:53.517Z,3.75
2022-08-22T01:36:43.954Z,4.28
2022-08-22T01:39:50.574Z,4.00
2022-08-22T01:42:38.283Z,4.00
2022-08-22T01:45:57.188Z,4.63
2022-08-22T01:48:32.665Z,4.70
2022-08-22T01:51:13.778Z,4.70
2022-08-22T01:53:51.646Z,4.28
2022-08-22T01:56:21.592Z,4.68
2022-08-22T01:58:58.697Z,4.53
2022-08-22T02:01:46.889Z,4.13
2022-08-22T02:04:20.942Z,4.00
2022-08-22T02:07:01.088Z,4.15
2022-08-22T02:09:41.765Z,4.47
2022-08-22T02:12:28.178Z,3.78
2022-08-22T02:15:06.906Z,4.63
2022-08-22T02:17:52.521Z,4.47
2022-08-22T02:20:26.068Z,4.30
2022-08-22T02:22:58.502Z,4.72
2022-08-22T02:25:33.442Z,4.63
2022-08-22T02:28:14.756Z,4.30
2022-08-22T02:30:48.954Z,4.30
2022-08-22T02:33:30.227Z,4.30
2022-08-22T02:36:04.266Z,4.57
2022-08-22T02:38:38.514Z,3.65
2022-08-22T02:41:14.472Z,4.35
2022-08-22T02:43:50.335Z,4.28
2022-08-22T02:46:26.384Z,4.70
2022-08-22T02:49:03.789Z,5.10
2022-08-22T02:51:40.185Z,4.38
2022-08-22T02:54:17.340Z,5.22
2022-08-22T02:56:53.462Z,4.55
2022-08-22T02:59:33.325Z,4.72
2022-08-22T03:02:29.926Z,5.20
2022-08-22T03:05:01.181Z,4.40
2022-08-22T03:07:40.443Z,5.22
2022-08-22T03:10:21.394Z,4.70
2022-08-22T03:13:00.519Z,4.70
2022-08-22T03:15:35.447Z,4.40
2022-08-22T03:18:15.902Z,4.75
2022-08-22T03:20:48.964Z,4.53
2022-08-22T03:23:28.400Z,4.78
2022-08-22T03:26:07.484Z,4.80
2022-08-22T03:28:52.621Z,4.57
2022-08-22T03:31:30.630Z,5.05
2022-08-22T03:34:17.623Z,4.82
2022-08-22T03:36:59.441Z,5.13
2022-08-22T03:39:46.447Z,5.13
2022-08-22T03:42:56.137Z,5.38
2022-08-22T03:46:04.408Z,5.32
2022-08-22T03:48:58.363Z,4.95
2022-08-22T03:51:59.836Z,4.82
2022-08-22T03:54:52.746Z,4.45
2022-08-22T03:57:49.523Z,4.80
2022-08-22T04:00:40.039Z,5.47
2022-08-22T04:03:41.580Z,5.07
2022-08-22T04:06:35.419Z,5.25
2022-08-22T04:09:29.211Z,4.85
2022-08-22T04:12:23.952Z,4.65
2022-08-22T04:15:32.255Z,5.07
2022-08-22T04:18:19.207Z,5.18
2022-08-22T04:21:24.392Z,4.53
2022-08-22T04:24:10.269Z,5.13
2022-08-22T04:26:43.903Z,4.97
2022-08-22T04:29:20.806Z,4.85
2022-08-22T04:31:54.802Z,5.15
2022-08-22T04:34:29.551Z,5.47
2022-08-22T04:37:06.699Z,5.47
2022-08-22T04:39:41.799Z,5.35
2022-08-22T04:42:32.393Z,5.30
2022-08-22T04:45:08.272Z,5.75
2022-08-22T04:47:41.123Z,5.63
2022-08-22T04:50:17.196Z,5.97
2022-08-22T04:53:03.286Z,5.13
2022-08-22T04:55:40.806Z,5.22
2022-08-22T04:58:23.309Z,5.75
2022-08-22T05:00:58.662Z,5.07
2022-08-22T05:03:30.039Z,5.30
2022-08-22T05:06:02.915Z,5.13
2022-08-22T05:08:36.913Z,5.97
2022-08-22T05:11:10.528Z,5.32
2022-08-22T05:13:46.740Z,5.38
2022-08-22T05:16:19.125Z,6.03
2022-08-22T05:18:50.590Z,6.25
2022-08-22T05:21:23.007Z,5.95
2022-08-22T05:23:59.790Z,5.75
2022-08-22T05:26:29.651Z,5.70
2022-08-22T05:29:02.423Z,5.30
2022-08-22T05:31:34.219Z,5.55
2022-08-22T05:34:05.986Z,5.38
2022-08-22T05:36:38.140Z,5.32
2022-08-22T05:39:13.208Z,5.45
2022-08-22T05:41:42.248Z,5.38
2022-08-22T05:44:19.877Z,5.18
2022-08-22T05:46:51.093Z,5.53
2022-08-22T05:49:22.610Z,5.38
2022-08-22T05:52:01.981Z,5.88
2022-08-22T05:54:34.972Z,5.70
2022-08-22T05:57:10.493Z,5.43
2022-08-22T05:59:42.744Z,5.55
2022-08-22T06:02:17.950Z,5.75
2022-08-22T06:04:51.900Z,5.93
2022-08-22T06:07:24.576Z,6.50
2022-08-22T06:10:08.454Z,5.85
2022-08-22T06:12:43.185Z,5.90
2022-08-22T06:15:20.964Z,6.38
2022-08-22T06:17:52.152Z,5.70
2022-08-22T06:20:23.973Z,6.25
2022-08-22T06:22:55.362Z,6.10
2022-08-22T06:25:29.313Z,6.13
2022-08-22T06:28:00.172Z,6.40
2022-08-22T06:30:30.149Z,5.90
2022-08-22T06:33:02.446Z,6.57
2022-08-22T06:35:54.706Z,6.05
2022-08-22T06:38:29.579Z,6.18
2022-08-22T06:41:02.032Z,6.03
2022-08-22T06:43:38.161Z,6.47
2022-08-22T06:46:07.443Z,5.95
2022-08-22T06:48:37.537Z,6.22
2022-08-22T06:51:08.716Z,6.22
2022-08-22T06:53:47.842Z,5.88
2022-08-22T06:56:23.268Z,5.85
2022-08-22T06:58:55.653Z,6.25
2022-08-22T07:01:27.545Z,5.95
2022-08-22T07:04:00.298Z,6.20
2022-08-22T07:06:31.944Z,5.57
2022-08-22T07:08:59.989Z,5.88
2022-08-22T07:11:39.387Z,6.03
2022-08-22T07:14:11.465Z,6.40
2022-08-22T07:16:44.933Z,5.72
2022-08-22T07:19:25.449Z,5.47
2022-08-22T07:24:25.620Z,6.00
2022-08-22T07:27:08.874Z,5.53
2022-08-22T07:29:47.801Z,5.75
2022-08-22T07:32:20.793Z,5.75
2022-08-22T07:35:05.620Z,5.25
2022-08-22T07:37:47.461Z,5.10
2022-08-22T07:40:23.326Z,4.90
2022-08-22T07:42:58.901Z,5.50
2022-08-22T07:45:34.423Z,4.70
2022-08-22T07:48:25.767Z,4.88
2022-08-22T07:51:08.437Z,4.45
2022-08-22T07:53:42.906Z,4.45
2022-08-22T07:56:16.896Z,4.55
2022-08-22T07:58:48.903Z,4.40
2022-08-22T08:01:20.577Z,3.80
2022-08-22T08:03:54.509Z,4.00
2022-08-22T08:06:24.792Z,4.22
2022-08-22T08:08:53.995Z,4.05
2022-08-22T08:11:24.128Z,3.45
2022-08-22T08:13:58.896Z,3.88
2022-08-22T08:16:29.659Z,3.33
2022-08-22T08:19:01.072Z,2.35
2022-08-22T08:21:32.015Z,3.58
2022-08-22T08:24:02.428Z,1.90
2022-08-22T08:26:34.806Z,2.08
2022-08-22T08:29:04.511Z,1.95
2022-08-22T08:31:38.199Z,2.15
2022-08-22T08:34:18.415Z,1.77
2022-08-22T08:36:52.318Z,2.08
2022-08-22T08:39:25.452Z,1.98
2022-08-22T08:42:30.502Z,1.90
2022-08-22T08:45:18.098Z,1.90
2022-08-22T08:48:16.551Z,2.15
2022-08-22T08:51:02.032Z,1.90
2022-08-22T08:54:03.676Z,2.10
2022-08-22T08:56:39.488Z,1.95
2022-08-22T08:59:25.647Z,1.75
2022-08-22T09:02:13.709Z,2.13
2022-08-22T09:05:25.410Z,1.70
2022-08-22T09:08:19.849Z,1.60
2022-08-22T09:11:09.904Z,1.80
2022-08-22T09:13:53.146Z,2.55
2022-08-22T09:16:46.233Z,2.08
2022-08-22T09:19:55.430Z,1.70
2022-08-22T09:23:05.145Z,2.70
2022-08-22T09:25:43.756Z,2.05
2022-08-22T09:28:17.677Z,2.00
2022-08-22T09:31:16.779Z,1.95
2022-08-22T09:33:56.909Z,2.13
2022-08-22T09:36:33.522Z,2.08
2022-08-22T09:39:13.291Z,1.88
2022-08-22T09:41:53.320Z,2.05
2022-08-22T09:44:39.449Z,1.75
2022-08-22T09:47:24.756Z,2.00
2022-08-22T09:50:05.117Z,1.75
2022-08-22T09:52:50.833Z,2.13
2022-08-22T09:55:38.553Z,1.95
2022-08-22T09:58:17.201Z,1.48
2022-08-22T10:00:55.384Z,1.63
2022-08-22T10:03:34.118Z,2.13
2022-08-22T10:06:13.422Z,1.77
2022-08-22T10:08:48.425Z,1.70
2022-08-22T10:11:26.885Z,1.48
2022-08-22T10:14:02.611Z,1.50
2022-08-22T10:16:43.156Z,1.83
2022-08-22T10:19:18.633Z,1.40
2022-08-22T10:22:21.511Z,1.67
2022-08-22T10:24:59.603Z,1.38
2022-08-22T10:27:43.567Z,1.27
2022-08-22T10:30:17.659Z,1.42
2022-08-22T10:32:53.415Z,1.35
2022-08-22T10:35:27.633Z,1.40
2022-08-22T10:37:59.073Z,1.27
2022-08-22T10:40:31.573Z,1.30
2022-08-22T10:43:10.206Z,1.60
2022-08-22T10:45:45.168Z,1.48
2022-08-22T10:48:35.216Z,1.58
2022-08-22T10:51:19.100Z,1.40
2022-08-22T10:54:00.195Z,1.10
2022-08-22T10:56:35.554Z,1.20
2022-08-22T10:59:22.796Z,1.48
2022-08-22T11:02:02.375Z,1.52
2022-08-22T11:04:43.918Z,1.13
2022-08-22T11:07:33.932Z,1.25
2022-08-22T11:10:10.540Z,1.13
2022-08-22T11:12:59.636Z,1.15
2022-08-22T11:16:01.169Z,1.13
2022-08-22T11:19:02.092Z,1.40
2022-08-22T11:21:43.930Z,1.20
2022-08-22T11:24:34.653Z,1.10
2022-08-22T11:27:12.994Z,1.00
2022-08-22T11:29:48.929Z,1.50
2022-08-22T11:32:30.017Z,1.20
2022-08-22T11:35:04.441Z,1.20
2022-08-22T11:37:47.578Z,1.23
2022-08-22T11:40:31.304Z,1.20
2022-08-22T11:43:12.003Z,1.40
2022-08-22T11:45:48.987Z,1.58
2022-08-22T11:48:24.671Z,1.25
2022-08-22T11:51:00.325Z,1.30
2022-08-22T11:53:38.796Z,1.13
2022-08-22T11:56:20.295Z,1.40
2022-08-22T11:58:55.831Z,1.08
2022-08-22T12:01:34.632Z,1.05
2022-08-22T12:04:12.717Z,1.20
2022-08-22T12:06:58.391Z,1.02
2022-08-22T12:09:42.558Z,0.75
2022-08-22T12:12:24.759Z,1.00
2022-08-22T12:15:00.407Z,1.10
2022-08-22T12:18:21.335Z,1.10
2022-08-22T12:21:07.484Z,1.17
2022-08-22T12:23:56.299Z,1.30
2022-08-22T12:26:34.132Z,1.23
2022-08-22T12:29:19.231Z,1.50
2022-08-22T12:32:33.918Z,1.20
2022-08-22T12:35:17.973Z,1.60
2022-08-22T12:37:55.957Z,1.15
2022-08-22T12:40:34.712Z,1.15
2022-08-22T12:43:42.507Z,1.25
2022-08-22T12:46:18.450Z,1.00
2022-08-22T12:49:00.652Z,1.27
2022-08-22T12:51:44.340Z,1.30
2022-08-22T12:54:47.235Z,1.20
2022-08-22T12:57:26.803Z,1.30
2022-08-22T12:59:58.111Z,1.20
2022-08-22T13:02:30.552Z,1.23
2022-08-22T13:05:01.816Z,1.13
2022-08-22T13:07:31.843Z,1.30
2022-08-22T13:12:39.945Z,1.13
2022-08-22T13:15:29.900Z,1.23
2022-08-22T13:18:18.807Z,1.30
2022-08-22T13:20:51.318Z,1.08
2022-08-22T13:23:29.005Z,0.85
2022-08-22T13:26:07.711Z,1.17
2022-08-22T13:28:45.197Z,1.23
2022-08-22T13:31:24.339Z,1.25
2022-08-22T13:33:54.801Z,1.00
2022-08-22T13:36:26.835Z,1.67
2022-08-22T13:39:02.558Z,1.00
2022-08-22T13:41:36.921Z,1.10
2022-08-22T13:44:20.553Z,1.20
2022-08-22T13:47:12.929Z,1.15
2022-08-22T13:49:44.158Z,1.35
2022-08-22T13:52:29.763Z,0.95
2022-08-22T13:55:03.625Z,1.02
2022-08-22T13:57:44.039Z,1.30
2022-08-22T14:00:57.748Z,1.20
2022-08-22T14:03:29.921Z,1.25
2022-08-22T14:06:32.543Z,1.13
2022-08-22T14:08:49.819Z,0.85
2022-08-22T14:11:29.468Z,1.20
2022-08-22T14:14:00.629Z,1.00
2022-08-22T14:16:35.534Z,1.10
2022-08-22T14:19:08.353Z,1.10
2022-08-22T14:21:42.770Z,1.05
2022-08-22T14:24:25.717Z,1.20
2022-08-22T14:26:59.251Z,0.90
2022-08-22T14:29:40.558Z,1.20
2022-08-22T14:32:35.391Z,1.30
2022-08-22T14:35:21.419Z,1.20
2022-08-22T14:37:54.412Z,1.60
2022-08-22T14:40:28.970Z,1.17
2022-08-22T14:43:03.925Z,1.55
2022-08-22T14:45:37.369Z,1.73
2022-08-22T14:48:30.850Z,1.10
2022-08-22T14:51:04.002Z,1.58
2022-08-22T14:53:34.766Z,1.05
2022-08-22T14:56:08.957Z,1.20
2022-08-22T14:58:48.795Z,1.33
2022-08-22T15:01:21.804Z,1.40
2022-08-22T15:03:55.411Z,1.08
2022-08-22T15:06:37.283Z,1.65
2022-08-22T15:09:08.443Z,1.67
2022-08-22T15:11:37.792Z,1.33
2022-08-22T15:14:16.165Z,1.30
2022-08-22T15:16:53.557Z,1.30
2022-08-22T15:19:35.481Z,1.00
2022-08-22T15:22:13.626Z,1.13
2022-08-22T15:24:44.423Z,1.35
2022-08-22T15:27:13.275Z,1.15
2022-08-22T15:29:55.609Z,1.45
2022-08-22T15:32:26.704Z,1.88
2022-08-22T15:35:05.424Z,1.30
2022-08-22T15:37:35.209Z,1.38
2022-08-22T15:40:11.890Z,1.33
2022-08-22T15:42:44.246Z,2.05
2022-08-22T15:45:34.029Z,1.30
2022-08-22T15:48:06.320Z,2.65
2022-08-22T15:50:41.954Z,1.15
2022-08-22T15:53:20.193Z,1.58
2022-08-22T15:56:22.398Z,1.30
2022-08-22T15:59:11.449Z,1.10
2022-08-22T16:01:44.339Z,1.15
2022-08-22T16:04:31.397Z,1.50
2022-08-22T16:07:02.565Z,1.20
2022-08-22T16:09:40.186Z,1.50
2022-08-22T16:12:26.107Z,1.20
2022-08-22T16:14:54.917Z,1.20
2022-08-22T16:17:46.582Z,1.73
2022-08-22T16:20:55.384Z,1.20
2022-08-22T16:23:24.956Z,1.60
2022-08-22T16:26:15.210Z,1.25
2022-08-22T16:28:58.901Z,1.00
2022-08-22T16:31:33.145Z,1.33
2022-08-22T16:34:23.294Z,1.00
2022-08-22T16:39:38.546Z,1.48
2022-08-22T16:42:25.849Z,1.50
2022-08-22T16:44:59.267Z,1.30
2022-08-22T16:47:42.713Z,1.27
2022-08-22T16:50:29.244Z,1.42
2022-08-22T16:53:01.574Z,1.23
2022-08-22T16:56:10.093Z,1.00
2022-08-22T16:59:22.422Z,1.20
2022-08-22T17:02:00.916Z,1.15
2022-08-22T17:04:40.228Z,1.27
2022-08-22T17:07:22.138Z,1.00
2022-08-22T17:10:04.892Z,1.35
2022-08-22T17:12:52.625Z,1.40
2022-08-22T17:15:32.069Z,1.10
2022-08-22T17:18:12.251Z,1.35
2022-08-22T17:20:47.727Z,1.30
2022-08-22T17:23:29.359Z,1.00
2022-08-22T17:26:08.684Z,1.27
2022-08-22T17:28:42.790Z,1.17
2022-08-22T17:31:18.336Z,1.35
2022-08-22T17:34:10.993Z,1.27
2022-08-22T17:37:04.986Z,1.30
2022-08-22T17:39:55.577Z,1.20
2022-08-22T17:42:40.048Z,1.23
2022-08-22T17:45:19.422Z,1.23
2022-08-22T17:47:52.504Z,1.37
2022-08-22T17:50:26.678Z,1.35
2022-08-22T17:53:02.095Z,1.20
2022-08-22T17:55:33.634Z,1.15
2022-08-22T17:58:07.605Z,1.88
2022-08-22T18:00:40.914Z,1.42
2022-08-22T18:03:14.780Z,1.48
2022-08-22T18:05:51.540Z,1.80
2022-08-22T18:11:24.028Z,1.20
2022-08-22T18:13:58.394Z,1.42
2022-08-22T18:16:36.444Z,1.27
2022-08-22T18:19:12.896Z,1.48
2022-08-22T18:21:48.284Z,1.42
2022-08-22T18:24:23.353Z,1.52
2022-08-22T18:26:56.998Z,1.27
2022-08-22T18:29:29.558Z,1.40
2022-08-22T18:32:07.788Z,1.38
2022-08-22T18:34:43.906Z,1.20
2022-08-22T18:37:22.531Z,1.48
2022-08-22T18:39:56.543Z,1.50
2022-08-22T18:42:30.106Z,1.13
2022-08-22T18:44:58.179Z,2.10
2022-08-22T18:47:32.752Z,1.33
2022-08-22T18:50:03.590Z,1.50
2022-08-22T18:52:40.820Z,1.48
2022-08-22T18:55:37.642Z,1.33
2022-08-22T18:58:39.177Z,1.65
2022-08-22T19:01:42.344Z,1.40
2022-08-22T19:04:36.493Z,1.55
2022-08-22T19:07:25.579Z,1.40
2022-08-22T19:10:14.115Z,1.42
2022-08-22T19:13:13.089Z,1.65
2022-08-22T19:15:58.269Z,1.40
2022-08-22T19:18:44.338Z,1.20
2022-08-22T19:21:45.513Z,1.40
2022-08-22T19:24:37.746Z,1.60
2022-08-22T19:27:30.938Z,1.52
2022-08-22T19:30:02.337Z,2.00
2022-08-22T19:33:00.537Z,2.00
2022-08-22T19:35:37.924Z,1.92
2022-08-22T19:38:09.068Z,2.22
2022-08-22T19:40:55.898Z,1.98
2022-08-22T19:43:32.782Z,2.42
2022-08-22T19:46:03.764Z,3.15
2022-08-22T19:48:43.598Z,2.10
2022-08-22T19:51:15.805Z,2.70
2022-08-22T19:53:53.851Z,2.50
2022-08-22T19:56:34.309Z,2.40
2022-08-22T19:59:24.049Z,2.20
2022-08-22T20:01:58.945Z,2.83
2022-08-22T20:04:56.321Z,2.30
2022-08-22T20:07:34.174Z,1.98
2022-08-22T20:10:21.948Z,2.20
2022-08-22T20:13:04.226Z,2.10
2022-08-22T20:15:36.093Z,1.73
2022-08-22T20:18:47.370Z,1.80
2022-08-22T20:21:00.351Z,1.88
2022-08-22T20:23:32.294Z,1.90
2022-08-22T20:26:02.260Z,1.90
2022-08-22T20:28:40.254Z,1.60
2022-08-22T20:31:13.636Z,1.52
2022-08-22T20:33:46.049Z,1.70
2022-08-22T20:36:28.453Z,1.60
2022-08-22T20:39:01.303Z,1.48
2022-08-22T20:41:35.616Z,1.98
2022-08-22T20:44:13.493Z,1.88
2022-08-22T20:46:53.811Z,1.77
2022-08-22T20:49:26.039Z,1.52
2022-08-22T20:51:57.083Z,1.83
2022-08-22T20:54:27.227Z,1.63
2022-08-22T20:57:00.137Z,1.50
2022-08-22T20:59:37.133Z,1.75
2022-08-22T21:02:14.602Z,1.80
2022-08-22T21:04:49.011Z,1.33
2022-08-22T21:07:23.441Z,2.10
2022-08-22T21:10:15.221Z,1.65
2022-08-22T21:13:02.226Z,1.50
2022-08-22T21:15:36.633Z,1.98
2022-08-22T21:18:05.297Z,2.03
2022-08-22T21:20:36.744Z,1.80
2022-08-22T21:23:09.025Z,1.95
2022-08-22T21:25:51.665Z,1.88
2022-08-22T21:28:33.200Z,1.75
2022-08-22T21:31:08.476Z,1.92
2022-08-22T21:33:39.956Z,1.80
2022-08-22T21:36:11.574Z,2.15
2022-08-22T21:38:40.697Z,2.10
2022-08-22T21:41:08.797Z,1.95
2022-08-22T21:43:40.229Z,2.15
2022-08-22T21:46:25.731Z,2.25
2022-08-22T21:49:01.242Z,1.83
2022-08-22T21:51:42.070Z,1.90
2022-08-22T21:54:33.169Z,2.00
2022-08-22T21:57:16.234Z,2.15
2022-08-22T21:59:59.684Z,1.90
2022-08-22T22:02:31.347Z,2.10
2022-08-22T22:05:04.490Z,1.90
2022-08-22T22:07:37.655Z,2.17
2022-08-22T22:10:08.471Z,2.40
2022-08-22T22:12:36.372Z,2.30
2022-08-22T22:15:06.512Z,1.85
2022-08-22T22:17:34.554Z,2.30
2022-08-22T22:20:02.635Z,2.40
2022-08-22T22:22:30.425Z,1.90
2022-08-22T22:24:58.411Z,2.03
2022-08-22T22:27:26.256Z,1.98
2022-08-22T22:29:54.068Z,2.08
2022-08-22T22:32:23.240Z,2.45
2022-08-22T22:34:51.059Z,2.25
2022-08-22T22:37:19.497Z,2.28
2022-08-22T22:39:47.428Z,2.47
2022-08-22T22:42:15.705Z,2.45
2022-08-22T22:44:43.952Z,2.35
2022-08-22T22:47:15.402Z,2.35
2022-08-22T22:49:46.069Z,2.40
2022-08-22T22:52:13.879Z,2.67
2022-08-22T22:54:41.722Z,2.78
2022-08-22T22:57:12.851Z,2.70
2022-08-22T22:59:41.805Z,3.35
2022-08-22T23:02:12.837Z,3.35
2022-08-22T23:04:43.289Z,2.58
2022-08-22T23:09:45.177Z,3.05
2022-08-22T23:12:14.186Z,2.55
2022-08-22T23:14:42.510Z,3.05
2022-08-22T23:17:10.548Z,3.10
2022-08-22T23:19:39.339Z,3.83
2022-08-22T23:22:08.972Z,3.42
2022-08-22T23:24:40.047Z,3.60
2022-08-22T23:27:09.553Z,3.50
2022-08-22T23:29:38.369Z,3.15
2022-08-22T23:32:06.564Z,2.70
2022-08-22T23:34:36.985Z,3.40
2022-08-22T23:37:06.610Z,3.67
2022-08-22T23:39:36.343Z,4.13
2022-08-22T23:42:07.688Z,4.30
2022-08-22T23:44:37.599Z,4.00
2022-08-22T23:47:06.821Z,5.30
2022-08-22T23:49:34.923Z,3.58
2022-08-22T23:52:03.280Z,4.22
2022-08-22T23:54:31.306Z,4.00
2022-08-22T23:57:01.547Z,4.93
2022-08-22T23:59:34.137Z,4.07
